Time;durP1;ratioP1;P1;durP2;ratioP2;P2;SDS_P1;SDS_P2;PMS_P1;PMS_P2;Temp;Humidity;BMP_temperature;BMP_pressure;BME280_temperature;BME280_humidity;BME280_pressure;Samples;Min_cycle;Max_cycle;Signal;HPM_P1;HPM_P2
2021/12/28 00:00:32;;;;;;;5.07;1.03;;;;;;;7.08;100.00;96705.63;5058604;28;20218;-73
2021/12/28 00:02:59;;;;;;;2.50;1.00;;;;;;;7.06;100.00;96691.88;5058582;28;20193;-69
2021/12/28 00:05:27;;;;;;;2.87;1.00;;;;;;;7.17;100.00;96702.44;5057758;28;20551;-73
2021/12/28 00:07:53;;;;;;;3.13;1.23;;;;;;;7.16;100.00;96700.84;5058541;28;20186;-73
2021/12/28 00:10:21;;;;;;;3.77;0.97;;;;;;;7.13;100.00;96696.00;5058522;28;20492;-72
2021/12/28 00:12:48;;;;;;;5.13;1.40;;;;;;;7.15;100.00;96696.56;5058473;28;20194;-71
2021/12/28 00:15:32;;;;;;;4.03;1.13;;;;;;;7.10;100.00;96683.22;5058384;28;20231;-71
2021/12/28 00:18:02;;;;;;;3.90;1.50;;;;;;;7.10;100.00;96695.66;5058406;28;20236;-68
2021/12/28 00:20:38;;;;;;;5.80;1.10;;;;;;;7.07;100.00;96696.13;5058180;28;20243;-69
2021/12/28 00:23:07;;;;;;;4.20;1.10;;;;;;;7.19;100.00;96692.44;5058278;28;20193;-71
2021/12/28 00:25:34;;;;;;;3.07;1.13;;;;;;;7.13;100.00;96701.28;5058111;28;20228;-69
2021/12/28 00:28:01;;;;;;;3.40;1.30;;;;;;;7.12;100.00;96689.13;5058175;28;20204;-69
2021/12/28 00:30:29;;;;;;;3.37;1.00;;;;;;;7.09;100.00;96708.06;5058165;28;20288;-73
2021/12/28 00:32:56;;;;;;;3.77;1.10;;;;;;;7.07;100.00;96698.75;5058049;28;20212;-72
2021/12/28 00:35:29;;;;;;;3.43;1.13;;;;;;;7.15;100.00;96690.50;5057958;28;20256;-71
2021/12/28 00:37:56;;;;;;;3.20;1.03;;;;;;;7.02;100.00;96675.66;5057968;28;20198;-72
2021/12/28 00:40:24;;;;;;;5.00;1.50;;;;;;;7.00;100.00;96684.84;5057582;28;20288;-71
2021/12/28 00:42:50;;;;;;;5.67;1.10;;;;;;;6.95;100.00;96680.25;5057511;28;20209;-72
2021/12/28 00:45:18;;;;;;;4.60;1.30;;;;;;;7.09;100.00;96680.81;5057477;28;20229;-73
2021/12/28 00:47:45;;;;;;;6.73;1.40;;;;;;;7.04;100.00;96683.34;5057823;28;20190;-73
2021/12/28 00:50:14;;;;;;;6.00;1.43;;;;;;;7.00;100.00;96682.19;5057448;28;20189;-73
2021/12/28 00:52:40;;;;;;;5.03;1.23;;;;;;;7.20;100.00;96690.59;5057733;28;20189;-73
2021/12/28 00:55:08;;;;;;;5.63;1.40;;;;;;;7.13;100.00;96682.78;5057574;28;20221;-73
2021/12/28 00:57:34;;;;;;;7.43;1.50;;;;;;;7.08;100.00;96676.56;5057583;28;20201;-72
2021/12/28 01:00:01;;;;;;;8.60;1.90;;;;;;;7.16;100.00;96679.69;5057478;28;20232;-71
2021/12/28 01:02:28;;;;;;;7.23;1.70;;;;;;;7.01;100.00;96681.97;5057202;28;20624;-71
2021/12/28 01:04:54;;;;;;;8.43;1.90;;;;;;;7.14;100.00;96681.75;5057417;28;20197;-73
2021/12/28 01:07:20;;;;;;;5.23;1.40;;;;;;;7.12;100.00;96677.72;5057465;28;20204;-73
2021/12/28 01:09:47;;;;;;;5.17;1.50;;;;;;;7.06;100.00;96683.94;5057329;28;20201;-72
2021/12/28 01:12:13;;;;;;;7.80;1.50;;;;;;;6.97;100.00;96678.19;5057289;28;20208;-71
2021/12/28 01:14:40;;;;;;;3.83;1.47;;;;;;;6.90;100.00;96674.84;5057254;28;20232;-71
2021/12/28 01:17:08;;;;;;;7.33;1.57;;;;;;;6.90;100.00;96669.56;5057215;28;20192;-69
2021/12/28 01:19:35;;;;;;;7.67;1.97;;;;;;;6.94;100.00;96662.81;5057113;28;20200;-71
2021/12/28 01:22:01;;;;;;;9.70;1.90;;;;;;;6.83;100.00;96665.44;5057105;28;20228;-73
2021/12/28 01:24:30;;;;;;;7.27;1.90;;;;;;;6.89;100.00;96669.81;5057101;28;20189;-71
2021/12/28 01:26:57;;;;;;;10.87;2.17;;;;;;;6.78;100.00;96671.41;5056710;28;20652;-73
2021/12/28 01:29:23;;;;;;;7.23;1.70;;;;;;;6.80;100.00;96668.53;5056730;28;20512;-73
2021/12/28 01:31:50;;;;;;;10.83;1.83;;;;;;;6.76;100.00;96664.72;5057030;28;20487;-73
2021/12/28 01:34:16;;;;;;;5.40;1.67;;;;;;;6.64;100.00;96669.19;5056928;28;20205;-73
2021/12/28 01:36:42;;;;;;;11.60;1.83;;;;;;;6.61;100.00;96659.88;5056780;28;20225;-73
2021/12/28 01:39:10;;;;;;;9.87;1.97;;;;;;;6.63;100.00;96651.75;5056823;28;20201;-72
2021/12/28 01:41:36;;;;;;;7.13;1.70;;;;;;;6.75;100.00;96642.78;5056239;28;20532;-72
2021/12/28 01:44:07;;;;;;;6.00;1.50;;;;;;;6.58;100.00;96641.06;5056467;28;20580;-72
2021/12/28 01:46:36;;;;;;;8.80;1.70;;;;;;;6.49;100.00;96634.50;5056671;28;20221;-69
2021/12/28 01:49:04;;;;;;;12.63;2.13;;;;;;;6.77;100.00;96626.72;5056366;28;20190;-69
2021/12/28 01:51:32;;;;;;;6.27;1.93;;;;;;;6.64;100.00;96633.03;5056681;28;20201;-73
2021/12/28 01:53:59;;;;;;;6.97;1.73;;;;;;;6.88;100.00;96625.94;5056651;28;20197;-73
2021/12/28 01:56:36;;;;;;;8.10;1.70;;;;;;;6.64;100.00;96626.94;5056683;28;20221;-72
2021/12/28 01:59:04;;;;;;;6.50;1.77;;;;;;;6.71;100.00;96619.72;5056592;28;20284;-72
2021/12/28 02:01:30;;;;;;;10.10;1.70;;;;;;;6.70;100.00;96611.00;5056458;28;20232;-73
2021/12/28 02:03:57;;;;;;;6.63;1.90;;;;;;;6.63;100.00;96598.94;5056520;28;20185;-73
2021/12/28 02:06:25;;;;;;;7.50;1.60;;;;;;;6.59;100.00;96610.97;5056383;28;20232;-73
2021/12/28 02:08:53;;;;;;;5.20;1.37;;;;;;;6.58;100.00;96598.81;5056473;28;20255;-72
2021/12/28 02:11:20;;;;;;;8.10;1.50;;;;;;;6.50;100.00;96588.59;5056490;28;20208;-72
2021/12/28 02:13:47;;;;;;;7.87;1.80;;;;;;;6.46;100.00;96592.72;5056202;28;20577;-72
2021/12/28 02:16:14;;;;;;;4.30;1.67;;;;;;;6.43;100.00;96582.63;5056320;28;20232;-72
2021/12/28 02:18:41;;;;;;;6.37;1.80;;;;;;;6.39;100.00;96582.31;5056014;28;20292;-71
2021/12/28 02:21:08;;;;;;;6.80;1.47;;;;;;;6.39;100.00;96589.41;5056252;28;20221;-73
2021/12/28 02:23:36;;;;;;;4.93;1.47;;;;;;;6.45;100.00;96584.03;5056395;28;20249;-73
2021/12/28 02:26:02;;;;;;;6.37;1.60;;;;;;;6.40;100.00;96585.72;5055939;28;20660;-73
2021/12/28 02:28:29;;;;;;;7.70;1.60;;;;;;;6.37;100.00;96586.97;5057842;28;20201;-73
2021/12/28 02:30:57;;;;;;;6.13;1.50;;;;;;;6.42;100.00;96575.75;5060400;28;20190;-73
2021/12/28 02:33:25;;;;;;;4.13;1.50;;;;;;;6.50;100.00;96563.00;5060008;28;20618;-73
2021/12/28 02:35:54;;;;;;;4.60;1.40;;;;;;;6.39;100.00;96563.00;5060185;28;20232;-73
2021/12/28 02:38:20;;;;;;;7.27;1.50;;;;;;;6.31;100.00;96550.97;5060296;28;20190;-71
2021/12/28 02:40:47;;;;;;;5.20;1.60;;;;;;;6.40;100.00;96559.34;5059700;28;20632;-71
2021/12/28 02:43:16;;;;;;;6.20;1.73;;;;;;;6.41;100.00;96558.28;5059885;28;20604;-71
2021/12/28 02:45:55;;;;;;;5.47;1.60;;;;;;;6.54;100.00;96550.16;5060071;28;20527;-71
2021/12/28 02:48:23;;;;;;;5.90;1.70;;;;;;;6.50;100.00;96538.44;5060110;28;20613;-69
2021/12/28 02:50:54;;;;;;;6.83;1.87;;;;;;;6.56;100.00;96537.53;5060050;28;20185;-69
2021/12/28 02:53:20;;;;;;;6.30;1.80;;;;;;;6.60;100.00;96538.69;5059986;28;20481;-73
2021/12/28 02:55:49;;;;;;;6.77;1.60;;;;;;;6.67;100.00;96531.44;5059841;28;20244;-72
2021/12/28 02:58:31;;;;;;;4.50;1.50;;;;;;;6.80;99.33;96534.66;5059528;28;20608;-73
2021/12/28 03:01:12;;;;;;;7.40;1.60;;;;;;;6.82;99.10;96542.31;5059447;28;20642;-73
2021/12/28 03:03:39;;;;;;;7.50;2.20;;;;;;;6.77;99.56;96529.81;5059523;28;20580;-73
2021/12/28 03:06:10;;;;;;;6.27;1.97;;;;;;;6.85;98.65;96520.75;5059603;28;20221;-73
2021/12/28 03:08:39;;;;;;;8.80;1.90;;;;;;;6.89;98.47;96519.25;5059688;28;20197;-73
2021/12/28 03:11:06;;;;;;;7.37;2.07;;;;;;;6.94;97.95;96508.78;5059598;28;20204;-69
2021/12/28 03:13:38;;;;;;;5.30;1.80;;;;;;;6.97;97.54;96514.38;5059634;28;20216;-71
2021/12/28 03:16:05;;;;;;;6.23;1.77;;;;;;;6.89;98.17;96508.69;5059509;28;20244;-73
2021/12/28 03:18:32;;;;;;;10.33;1.90;;;;;;;6.98;97.22;96513.38;5059499;28;20205;-73
2021/12/28 03:20:59;;;;;;;4.50;1.60;;;;;;;7.00;97.35;96503.38;5059409;28;20214;-73
2021/12/28 03:23:26;;;;;;;10.53;1.70;;;;;;;7.04;96.46;96504.50;5059405;28;20196;-72
2021/12/28 03:25:55;;;;;;;4.90;1.77;;;;;;;6.98;97.02;96499.34;5059252;28;20221;-72
2021/12/28 03:28:33;;;;;;;10.50;2.00;;;;;;;6.96;97.01;96501.41;5059293;28;20205;-68
2021/12/28 03:31:01;;;;;;;6.73;1.47;;;;;;;6.98;96.27;96497.53;5059284;28;20193;-69
2021/12/28 03:33:30;;;;;;;8.17;1.83;;;;;;;6.99;96.61;96500.94;5059175;28;20207;-69
2021/12/28 03:35:58;;;;;;;5.87;1.83;;;;;;;7.01;96.15;96498.91;5059114;28;20228;-74
2021/12/28 03:38:25;;;;;;;8.03;2.23;;;;;;;6.99;96.66;96493.03;5059106;28;20198;-73
2021/12/28 03:40:53;;;;;;;6.10;2.00;;;;;;;7.09;95.10;96494.03;5057617;28;20213;-73
2021/12/28 03:43:22;;;;;;;8.07;1.60;;;;;;;7.03;95.61;96483.59;5059091;28;20201;-73
2021/12/28 03:45:49;;;;;;;5.57;1.60;;;;;;;6.95;97.03;96481.31;5058963;28;20221;-72
2021/12/28 03:48:16;;;;;;;7.30;1.93;;;;;;;7.01;95.88;96483.03;5058622;28;20201;-71
2021/12/28 03:50:42;;;;;;;10.63;1.80;;;;;;;6.96;96.25;96481.09;5058575;28;20604;-70
2021/12/28 03:53:09;;;;;;;6.60;1.90;;;;;;;7.05;95.07;96471.75;5058817;28;20205;-71
2021/12/28 03:55:36;;;;;;;8.10;1.90;;;;;;;7.13;94.81;96466.09;5058442;28;20651;-71
2021/12/28 03:58:04;;;;;;;6.70;2.00;;;;;;;7.09;95.03;96467.59;5058760;28;20213;-69
2021/12/28 04:00:36;;;;;;;10.00;2.13;;;;;;;7.16;94.07;96456.91;5058281;28;20208;-69
2021/12/28 04:03:02;;;;;;;6.37;1.63;;;;;;;7.17;94.05;96450.56;5058662;28;20194;-69
2021/12/28 04:05:29;;;;;;;8.53;2.03;;;;;;;7.20;93.61;96452.75;5058569;28;20236;-69
2021/12/28 04:07:55;;;;;;;6.93;1.80;;;;;;;7.13;94.09;96452.09;5058550;28;20212;-68
2021/12/28 04:10:29;;;;;;;6.23;1.97;;;;;;;7.11;94.28;96454.94;5058191;28;20577;-69
2021/12/28 04:12:55;;;;;;;7.53;2.00;;;;;;;7.17;93.58;96448.75;5058424;28;20281;-69
2021/12/28 04:15:22;;;;;;;7.03;1.77;;;;;;;7.09;94.59;96457.03;5059116;28;20228;-69
2021/12/28 04:17:50;;;;;;;6.83;1.83;;;;;;;7.02;95.38;96451.09;5058078;28;20202;-69
2021/12/28 04:20:19;;;;;;;5.57;1.53;;;;;;;7.06;95.22;96457.50;5058305;28;20201;-69
2021/12/28 04:22:47;;;;;;;7.10;1.90;;;;;;;7.01;96.41;96446.84;5058211;28;20201;-69
2021/12/28 04:25:15;;;;;;;8.87;1.93;;;;;;;7.03;96.33;96446.59;5058107;28;20225;-69
2021/12/28 04:27:43;;;;;;;5.10;1.90;;;;;;;7.07;95.28;96447.75;5057763;28;20205;-69
2021/12/28 04:30:11;;;;;;;7.60;1.90;;;;;;;6.99;96.64;96456.84;5058119;28;20241;-69
2021/12/28 04:32:38;;;;;;;6.73;1.60;;;;;;;7.05;95.64;96447.97;5057673;28;20211;-69
2021/12/28 04:35:05;;;;;;;7.23;1.77;;;;;;;7.02;96.56;96447.66;5057721;28;20217;-69
2021/12/28 04:37:32;;;;;;;7.50;1.73;;;;;;;7.00;96.76;96445.25;5057983;28;20605;-73
2021/12/28 04:39:59;;;;;;;7.87;1.80;;;;;;;6.96;96.60;96441.47;5057815;28;20212;-74
2021/12/28 04:42:27;;;;;;;7.70;1.63;;;;;;;7.01;97.23;96431.00;5057348;28;20232;-73
2021/12/28 04:44:54;;;;;;;7.97;1.80;;;;;;;6.95;97.68;96431.94;5057534;28;20213;-73
2021/12/28 04:47:20;;;;;;;9.90;1.93;;;;;;;6.94;98.28;96434.81;5057614;28;20201;-73
2021/12/28 04:49:47;;;;;;;6.60;1.70;;;;;;;6.91;98.97;96437.91;5058145;28;20193;-73
2021/12/28 04:52:14;;;;;;;10.87;2.30;;;;;;;6.89;99.21;96429.44;5057316;28;20285;-73
2021/12/28 04:54:40;;;;;;;7.73;2.07;;;;;;;6.91;98.91;96428.16;5057510;28;20204;-73
2021/12/28 04:57:07;;;;;;;4.83;1.83;;;;;;;6.88;99.57;96431.25;5057513;28;20197;-73
2021/12/28 04:59:34;;;;;;;4.93;1.83;;;;;;;6.93;99.18;96422.66;5057439;28;20209;-73
2021/12/28 05:02:01;;;;;;;7.23;1.90;;;;;;;6.88;99.92;96423.34;5057965;28;20214;-73
2021/12/28 05:04:27;;;;;;;6.83;1.80;;;;;;;6.83;100.00;96425.88;5057227;28;20193;-73
2021/12/28 05:06:55;;;;;;;6.33;1.70;;;;;;;6.87;100.00;96418.31;5057218;28;20233;-73
2021/12/28 05:09:22;;;;;;;6.90;1.67;;;;;;;6.80;100.00;96407.06;5057330;28;20189;-73
2021/12/28 05:11:50;;;;;;;5.17;1.50;;;;;;;6.76;100.00;96408.56;5057272;28;20279;-73
2021/12/28 05:14:18;;;;;;;6.37;1.83;;;;;;;6.70;100.00;96394.47;5057240;28;20204;-73
2021/12/28 05:16:45;;;;;;;8.13;1.73;;;;;;;6.72;100.00;96394.22;5056659;28;20580;-73
2021/12/28 05:19:12;;;;;;;3.83;1.67;;;;;;;6.71;100.00;96403.19;5057143;28;20201;-73
2021/12/28 05:21:39;;;;;;;7.93;1.63;;;;;;;6.70;100.00;96401.59;5056973;28;20225;-73
2021/12/28 05:24:06;;;;;;;6.40;1.70;;;;;;;6.76;100.00;96398.81;5056860;28;20197;-73
2021/12/28 05:26:32;;;;;;;7.70;1.70;;;;;;;6.72;100.00;96394.22;5056505;28;20232;-73
2021/12/28 05:28:59;;;;;;;7.73;1.90;;;;;;;6.74;100.00;96392.97;5056842;28;20204;-73
2021/12/28 05:31:27;;;;;;;6.13;1.57;;;;;;;6.79;100.00;96390.41;5056550;28;20577;-73
2021/12/28 05:33:54;;;;;;;3.80;1.70;;;;;;;6.79;100.00;96389.63;5056901;28;20200;-73
2021/12/28 05:36:22;;;;;;;7.13;1.47;;;;;;;6.74;100.00;96389.53;5056344;28;20232;-73
2021/12/28 05:38:48;;;;;;;4.40;1.40;;;;;;;6.69;100.00;96392.88;5056163;28;20201;-73
2021/12/28 05:41:15;;;;;;;4.93;1.50;;;;;;;6.73;100.00;96380.81;5055939;28;20225;-73
2021/12/28 05:43:47;;;;;;;4.37;1.50;;;;;;;6.72;100.00;96384.47;5055988;28;20213;-73
2021/12/28 05:46:13;;;;;;;5.40;1.40;;;;;;;6.75;100.00;96375.28;5056095;28;20244;-73
2021/12/28 05:48:40;;;;;;;6.30;1.63;;;;;;;6.79;100.00;96373.78;5056208;28;20504;-73
2021/12/28 05:51:06;;;;;;;5.73;1.33;;;;;;;6.73;100.00;96378.16;5056430;28;20197;-73
2021/12/28 05:53:33;;;;;;;4.83;1.37;;;;;;;6.78;100.00;96367.69;5055934;28;20601;-73
2021/12/28 05:55:59;;;;;;;4.40;1.60;;;;;;;6.77;100.00;96367.91;5056339;28;20244;-73
2021/12/28 05:58:25;;;;;;;3.17;1.50;;;;;;;6.78;100.00;96366.91;5056313;28;20201;-73
2021/12/28 06:00:52;;;;;;;6.13;1.97;;;;;;;6.77;100.00;96362.63;5056245;28;20197;-73
2021/12/28 06:03:18;;;;;;;5.73;1.73;;;;;;;6.80;100.00;96370.09;5055524;28;20201;-73
2021/12/28 06:05:45;;;;;;;6.03;1.60;;;;;;;6.82;100.00;96373.28;5056156;28;20248;-73
2021/12/28 06:08:11;;;;;;;2.63;1.60;;;;;;;6.80;100.00;96357.72;5056325;28;20208;-73
2021/12/28 06:10:37;;;;;;;3.37;1.80;;;;;;;6.77;100.00;96366.09;5056308;28;20201;-73
2021/12/28 06:13:04;;;;;;;3.57;1.40;;;;;;;6.98;100.00;96368.06;5056193;28;20196;-73
2021/12/28 06:15:30;;;;;;;4.97;1.80;;;;;;;6.96;100.00;96370.13;5055551;28;20228;-73
2021/12/28 06:17:56;;;;;;;4.63;1.40;;;;;;;6.91;100.00;96354.19;5055686;28;20629;-73
2021/12/28 06:20:23;;;;;;;5.30;1.40;;;;;;;6.89;100.00;96358.13;5056238;28;20205;-73
2021/12/28 06:22:49;;;;;;;3.57;1.67;;;;;;;6.83;100.00;96351.94;5056058;28;20244;-73
2021/12/28 06:25:16;;;;;;;2.47;1.40;;;;;;;6.84;100.00;96348.25;5056043;28;20225;-73
2021/12/28 06:27:42;;;;;;;5.63;1.60;;;;;;;6.87;100.00;96345.16;5055865;28;20204;-73
2021/12/28 06:30:10;;;;;;;5.57;2.03;;;;;;;6.80;100.00;96355.06;5056246;28;20190;-73
2021/12/28 06:32:36;;;;;;;3.77;1.50;;;;;;;6.82;100.00;96368.00;5056042;28;20197;-73
2021/12/28 06:35:03;;;;;;;3.13;1.60;;;;;;;6.79;100.00;96358.72;5055658;28;20217;-73
2021/12/28 06:37:30;;;;;;;3.90;1.40;;;;;;;6.81;100.00;96350.56;5055893;28;20197;-73
2021/12/28 06:39:56;;;;;;;4.33;1.67;;;;;;;6.87;100.00;96347.00;5056381;28;20201;-72
2021/12/28 06:42:22;;;;;;;3.90;1.70;;;;;;;6.78;100.00;96349.19;5055438;28;20655;-73
2021/12/28 06:44:51;;;;;;;4.80;1.70;;;;;;;6.76;100.00;96347.84;5055875;28;20212;-73
2021/12/28 06:47:18;;;;;;;6.10;1.50;;;;;;;6.79;100.00;96336.81;5055658;28;20216;-73
2021/12/28 06:49:45;;;;;;;3.43;1.43;;;;;;;6.88;100.00;96338.03;5055938;28;20209;-73
2021/12/28 06:52:12;;;;;;;3.57;1.30;;;;;;;6.91;100.00;96338.34;5056078;28;20223;-73
2021/12/28 06:54:39;;;;;;;3.47;1.20;;;;;;;6.95;100.00;96330.75;5055634;28;20209;-73
2021/12/28 06:57:12;;;;;;;6.47;1.40;;;;;;;6.94;100.00;96329.16;5055658;28;20689;-73
2021/12/28 06:59:43;;;;;;;1.77;0.80;;;;;;;7.03;100.00;96338.28;5055855;28;20197;-73
2021/12/28 07:02:10;;;;;;;2.73;0.93;;;;;;;7.08;100.00;96341.03;5055329;28;20580;-73
2021/12/28 07:04:36;;;;;;;4.70;1.30;;;;;;;7.16;100.00;96353.84;5055846;28;20196;-73
2021/12/28 07:07:03;;;;;;;1.77;0.97;;;;;;;7.27;100.00;96337.09;5055633;28;20247;-73
2021/12/28 07:09:30;;;;;;;1.40;0.90;;;;;;;7.40;100.00;96334.97;5055769;28;20224;-73
2021/12/28 07:11:56;;;;;;;1.10;0.63;;;;;;;7.42;100.00;96332.88;5055619;28;20507;-73
2021/12/28 07:14:22;;;;;;;2.17;0.80;;;;;;;7.52;100.00;96334.88;5056656;28;20206;-73
2021/12/28 07:16:49;;;;;;;1.00;0.53;;;;;;;7.45;100.00;96332.41;5059295;28;20232;-73
2021/12/28 07:19:15;;;;;;;1.57;0.60;;;;;;;7.56;99.97;96336.00;5059345;28;20209;-73
2021/12/28 07:21:42;;;;;;;2.40;0.90;;;;;;;7.58;99.77;96336.56;5059158;28;20256;-73
2021/12/28 07:24:10;;;;;;;1.80;0.63;;;;;;;7.64;99.47;96331.09;5059314;28;20267;-73
2021/12/28 07:26:37;;;;;;;0.50;0.50;;;;;;;7.80;98.13;96321.53;5059132;28;20500;-73
2021/12/28 07:29:04;;;;;;;1.07;0.60;;;;;;;7.81;98.01;96325.78;5058755;28;20201;-73
2021/12/28 07:31:31;;;;;;;0.50;0.50;;;;;;;7.83;98.30;96329.00;5058530;28;20648;-73
2021/12/28 07:33:58;;;;;;;1.60;0.60;;;;;;;7.95;97.00;96321.75;5058465;28;20580;-73
2021/12/28 07:36:24;;;;;;;2.30;0.70;;;;;;;7.95;96.77;96332.31;5058512;28;20221;-73
2021/12/28 07:38:51;;;;;;;0.63;0.60;;;;;;;7.99;96.63;96333.44;5058362;28;20208;-73
2021/12/28 07:41:17;;;;;;;1.13;0.60;;;;;;;8.00;96.18;96329.75;5058411;28;20516;-74
2021/12/28 07:43:44;;;;;;;1.00;0.60;;;;;;;8.05;95.82;96329.84;5058659;28;20205;-73
2021/12/28 07:46:10;;;;;;;0.90;0.50;;;;;;;8.22;94.95;96341.19;5058382;28;20228;-73
2021/12/28 07:48:36;;;;;;;0.40;0.40;;;;;;;8.20;95.06;96332.69;5058753;28;20205;-73
2021/12/28 07:51:03;;;;;;;1.07;0.60;;;;;;;8.17;95.58;96338.44;5059366;28;20189;-73
2021/12/28 07:53:29;;;;;;;0.50;0.50;;;;;;;8.24;94.82;96342.53;5058216;28;20201;-73
2021/12/28 07:55:57;;;;;;;1.67;0.40;;;;;;;8.24;94.48;96337.25;5058079;28;20652;-73
2021/12/28 07:58:24;;;;;;;0.40;0.40;;;;;;;8.34;93.60;96344.53;5058260;28;20331;-73
2021/12/28 08:00:50;;;;;;;0.80;0.70;;;;;;;8.34;93.90;96360.41;5058309;28;20193;-73
2021/12/28 08:03:19;;;;;;;3.93;0.50;;;;;;;8.37;93.68;96347.47;5058451;28;20244;-73
2021/12/28 08:05:46;;;;;;;0.53;0.50;;;;;;;8.41;93.12;96340.66;5058003;28;20684;-73
2021/12/28 08:08:12;;;;;;;0.43;0.40;;;;;;;8.45;93.77;96338.31;5058083;28;20609;-73
2021/12/28 08:10:40;;;;;;;0.87;0.50;;;;;;;8.44;93.54;96337.53;5058324;28;20206;-73
2021/12/28 08:13:06;;;;;;;0.77;0.40;;;;;;;8.44;94.78;96334.06;5058101;28;20193;-73
2021/12/28 08:15:32;;;;;;;0.90;0.60;;;;;;;8.37;96.21;96333.47;5057910;28;20232;-73
2021/12/28 08:17:59;;;;;;;0.40;0.40;;;;;;;8.28;97.96;96356.13;5058838;28;20194;-73
2021/12/28 08:20:25;;;;;;;0.93;0.40;;;;;;;8.30;97.60;96351.38;5058137;28;20212;-73
2021/12/28 08:22:52;;;;;;;0.40;0.40;;;;;;;8.25;99.59;96348.66;5058104;28;20209;-73
2021/12/28 08:25:20;;;;;;;0.67;0.50;;;;;;;8.29;98.58;96345.25;5057390;28;20232;-73
2021/12/28 08:27:47;;;;;;;0.40;0.40;;;;;;;8.20;100.00;96352.03;5057522;28;20585;-73
2021/12/28 08:30:15;;;;;;;1.43;0.70;;;;;;;8.21;100.00;96350.19;5057932;28;20206;-73
2021/12/28 08:32:42;;;;;;;0.90;0.50;;;;;;;8.21;100.00;96363.41;5057948;28;20197;-73
2021/12/28 08:35:10;;;;;;;2.07;0.50;;;;;;;8.25;100.00;96361.88;5057561;28;20217;-73
2021/12/28 08:37:37;;;;;;;0.40;0.40;;;;;;;8.29;100.00;96355.06;5057446;28;20224;-73
2021/12/28 08:40:05;;;;;;;0.77;0.70;;;;;;;8.31;100.00;96366.19;5057836;28;20201;-73
2021/12/28 08:42:31;;;;;;;0.67;0.30;;;;;;;8.34;100.00;96373.66;5057375;28;20232;-73
2021/12/28 08:44:57;;;;;;;0.30;0.30;;;;;;;8.36;100.00;96368.91;5057388;28;20607;-73
2021/12/28 08:47:26;;;;;;;0.30;0.30;;;;;;;8.47;98.79;96376.72;5057455;28;20616;-73
2021/12/28 08:49:55;;;;;;;0.30;0.30;;;;;;;8.45;99.50;96368.25;5057358;28;20197;-73
2021/12/28 08:52:22;;;;;;;0.30;0.30;;;;;;;8.49;99.83;96374.66;5057290;28;20189;-73
2021/12/28 08:54:48;;;;;;;0.23;0.23;;;;;;;8.52;98.68;96360.94;5057488;28;20205;-73
2021/12/28 08:57:15;;;;;;;0.33;0.30;;;;;;;8.60;98.50;96379.00;5057488;28;20197;-71
2021/12/28 08:59:41;;;;;;;1.70;0.37;;;;;;;8.70;96.90;96373.03;5057165;28;20190;-71
2021/12/28 09:02:09;;;;;;;1.13;0.30;;;;;;;8.70;98.73;96373.84;5057082;28;20259;-72
2021/12/28 09:04:36;;;;;;;0.20;0.20;;;;;;;8.80;97.91;96366.03;5057140;28;20186;-72
2021/12/28 09:07:03;;;;;;;0.40;0.40;;;;;;;8.86;97.57;96372.97;5057239;28;20221;-71
2021/12/28 09:09:30;;;;;;;0.30;0.30;;;;;;;8.92;97.54;96379.13;5057123;28;20483;-71
2021/12/28 09:11:56;;;;;;;0.33;0.20;;;;;;;8.95;96.20;96386.56;5057059;28;20516;-71
2021/12/28 09:14:22;;;;;;;0.30;0.30;;;;;;;8.97;95.65;96387.13;5056933;28;20497;-72
2021/12/28 09:16:49;;;;;;;0.70;0.30;;;;;;;8.95;96.11;96378.59;5057012;28;20222;-71
2021/12/28 09:19:15;;;;;;;0.20;0.20;;;;;;;8.91;97.79;96375.66;5057061;28;20500;-72
2021/12/28 09:21:42;;;;;;;0.30;0.30;;;;;;;8.97;97.25;96374.66;5056606;28;20488;-72
2021/12/28 09:24:08;;;;;;;0.27;0.27;;;;;;;9.06;96.49;96385.63;5056719;28;20599;-71
2021/12/28 09:26:37;;;;;;;0.30;0.30;;;;;;;9.18;95.92;96388.91;5056750;28;20224;-72
2021/12/28 09:29:04;;;;;;;1.00;0.30;;;;;;;9.23;94.24;96389.78;5056989;28;20281;-71
2021/12/28 09:31:31;;;;;;;0.30;0.30;;;;;;;9.22;95.30;96382.06;5056580;28;20581;-71
2021/12/28 09:33:57;;;;;;;0.47;0.20;;;;;;;9.25;95.18;96398.31;5056597;28;20493;-71
2021/12/28 09:36:23;;;;;;;0.63;0.30;;;;;;;9.29;95.78;96394.09;5056430;28;20644;-71
2021/12/28 09:38:50;;;;;;;0.43;0.30;;;;;;;9.29;95.49;96399.41;5055861;28;20225;-71
2021/12/28 09:41:17;;;;;;;0.30;0.30;;;;;;;9.34;96.63;96388.84;5056301;28;20217;-71
2021/12/28 09:43:47;;;;;;;0.27;0.27;;;;;;;9.37;95.43;96390.19;5056389;28;20229;-71
2021/12/28 09:46:14;;;;;;;0.50;0.30;;;;;;;9.46;94.76;96393.97;5056552;28;20322;-71
2021/12/28 09:48:41;;;;;;;0.40;0.40;;;;;;;9.42;94.82;96403.50;5056582;28;20185;-72
2021/12/28 09:51:08;;;;;;;0.40;0.40;;;;;;;9.47;95.41;96411.50;5056732;28;20193;-72
2021/12/28 09:53:35;;;;;;;1.50;0.40;;;;;;;9.52;94.75;96409.69;5056611;28;20208;-71
2021/12/28 09:56:02;;;;;;;1.33;0.30;;;;;;;9.58;94.99;96413.97;5056480;28;20228;-71
2021/12/28 09:58:28;;;;;;;2.40;0.57;;;;;;;9.52;96.71;96414.19;5056415;28;20206;-71
2021/12/28 10:00:55;;;;;;;0.40;0.40;;;;;;;9.63;94.84;96411.38;5056279;28;20204;-71
2021/12/28 10:03:21;;;;;;;0.40;0.40;;;;;;;9.72;95.16;96407.19;5055977;28;20205;-71
2021/12/28 10:05:47;;;;;;;0.90;0.50;;;;;;;9.75;95.13;96414.66;5056333;28;20233;-72
2021/12/28 10:08:14;;;;;;;0.40;0.40;;;;;;;9.81;94.77;96404.88;5055697;28;20617;-71
2021/12/28 10:10:44;;;;;;;1.30;0.40;;;;;;;9.94;93.75;96405.25;5056152;28;20259;-71
2021/12/28 10:13:19;;;;;;;0.47;0.40;;;;;;;10.05;92.99;96414.13;5056192;28;20207;-73
2021/12/28 10:15:48;;;;;;;0.53;0.40;;;;;;;10.13;93.39;96416.28;5055934;28;20227;-73
2021/12/28 10:18:15;;;;;;;0.77;0.40;;;;;;;10.20;93.61;96406.25;5056249;28;20205;-71
2021/12/28 10:20:57;;;;;;;0.37;0.37;;;;;;;10.34;92.54;96412.72;5056013;28;20205;-71
2021/12/28 10:23:26;;;;;;;0.50;0.30;;;;;;;10.35;93.24;96419.63;5056318;28;20604;-73
2021/12/28 10:25:55;;;;;;;0.30;0.30;;;;;;;10.39;91.42;96416.22;5055821;28;20252;-73
2021/12/28 10:28:25;;;;;;;0.30;0.30;;;;;;;10.48;90.79;96413.84;5056141;28;20208;-73
2021/12/28 10:30:54;;;;;;;0.50;0.40;;;;;;;10.55;91.06;96404.59;5056856;28;20211;-73
2021/12/28 10:33:23;;;;;;;0.30;0.30;;;;;;;10.50;91.47;96407.22;5055542;28;20201;-73
2021/12/28 10:35:52;;;;;;;0.30;0.30;;;;;;;10.46;91.93;96406.13;5055796;28;20225;-72
2021/12/28 10:38:22;;;;;;;0.77;0.40;;;;;;;10.58;91.23;96401.44;5055865;28;20204;-71
2021/12/28 10:40:58;;;;;;;0.63;0.30;;;;;;;10.63;90.97;96392.66;5055467;28;20190;-71
2021/12/28 10:43:30;;;;;;;0.33;0.33;;;;;;;10.72;91.47;96401.75;5055937;28;20209;-72
2021/12/28 10:46:02;;;;;;;0.40;0.40;;;;;;;10.72;91.27;96399.88;5055741;28;20229;-72
2021/12/28 10:48:35;;;;;;;0.97;0.63;;;;;;;10.79;91.96;96395.16;5055888;28;20204;-72
2021/12/28 10:51:09;;;;;;;1.10;0.47;;;;;;;10.79;91.75;96400.47;5059824;28;20280;-72
2021/12/28 10:54:01;;;;;;;0.37;0.37;;;;;;;10.93;92.08;96394.66;5059765;28;20199;-72
2021/12/28 10:56:29;;;;;;;0.73;0.30;;;;;;;11.02;89.64;96408.00;5059612;28;20225;-73
2021/12/28 10:58:57;;;;;;;0.50;0.50;;;;;;;11.09;90.31;96407.75;5059555;28;20190;-73
2021/12/28 11:01:28;;;;;;;0.30;0.30;;;;;;;11.27;90.10;96405.38;5059338;28;20604;-73
2021/12/28 11:04:08;;;;;;;0.47;0.37;;;;;;;11.39;89.95;96402.47;5059310;28;20232;-73
2021/12/28 11:06:37;;;;;;;0.30;0.30;;;;;;;11.43;88.35;96390.25;5059549;28;20513;-73
2021/12/28 11:09:10;;;;;;;0.30;0.30;;;;;;;11.47;88.83;96385.19;5059654;28;20196;-73
2021/12/28 11:11:37;;;;;;;0.20;0.20;;;;;;;11.59;89.53;96383.91;5059421;28;20492;-73
2021/12/28 11:14:09;;;;;;;0.27;0.27;;;;;;;11.51;89.77;96388.94;5059027;28;20577;-74
2021/12/28 11:16:36;;;;;;;0.30;0.30;;;;;;;11.53;89.22;96384.16;5059291;28;20221;-73
2021/12/28 11:19:06;;;;;;;0.20;0.20;;;;;;;11.52;88.52;96377.25;5059161;28;20501;-73
2021/12/28 11:21:36;;;;;;;0.30;0.30;;;;;;;11.61;87.97;96386.31;5059310;28;20193;-73
2021/12/28 11:24:10;;;;;;;0.30;0.30;;;;;;;11.69;87.91;96378.59;5058802;28;20647;-73
2021/12/28 11:26:41;;;;;;;0.50;0.50;;;;;;;11.67;88.64;96375.38;5058988;28;20221;-73
2021/12/28 11:29:13;;;;;;;0.40;0.40;;;;;;;11.56;88.34;96376.44;5058823;28;20197;-72
2021/12/28 11:31:50;;;;;;;0.30;0.30;;;;;;;11.65;88.82;96377.53;5058825;28;20189;-72
2021/12/28 11:34:27;;;;;;;0.30;0.30;;;;;;;11.62;88.79;96379.94;5058967;28;20208;-72
2021/12/28 11:36:55;;;;;;;0.50;0.43;;;;;;;11.65;88.16;96377.53;5058422;28;20531;-72
2021/12/28 11:39:53;;;;;;;0.40;0.40;;;;;;;11.77;88.52;96366.63;5058738;28;20497;-72